createdAt,value
2022-11-02T00:00:56.511Z,47.72
2022-11-02T00:06:01.547Z,45.28
2022-11-02T00:11:06.520Z,42.00
2022-11-02T00:16:16.846Z,43.13
2022-11-02T00:26:27.282Z,41.78
2022-11-02T00:31:34.931Z,42.00
2022-11-02T00:36:40.025Z,38.70
2022-11-02T00:41:45.028Z,39.55
2022-11-02T00:46:52.640Z,39.45
2022-11-02T00:51:57.812Z,37.58
2022-11-02T00:57:02.900Z,39.58
2022-11-02T01:02:10.643Z,36.05
2022-11-02T01:07:15.786Z,37.83
2022-11-02T01:12:20.795Z,36.13
2022-11-02T01:17:28.380Z,34.08
2022-11-02T01:22:33.363Z,37.22
2022-11-02T01:27:38.347Z,36.63
2022-11-02T01:32:45.939Z,38.53
2022-11-02T01:37:51.028Z,36.55
2022-11-02T01:42:56.030Z,38.10
2022-11-02T01:48:03.994Z,34.47
2022-11-02T01:53:09.194Z,34.38
2022-11-02T01:58:15.690Z,31.38
2022-11-02T02:03:24.194Z,31.25
2022-11-02T02:08:30.348Z,35.63
2022-11-02T02:13:35.395Z,34.75
2022-11-02T02:18:46.445Z,31.63
2022-11-02T02:24:17.905Z,31.90
2022-11-02T02:29:27.412Z,29.25
2022-11-02T02:34:38.278Z,33.83
2022-11-02T02:39:45.927Z,30.20
2022-11-02T02:44:57.866Z,30.27
2022-11-02T02:50:07.651Z,30.60
2022-11-02T02:55:17.845Z,31.02
2022-11-02T03:00:25.699Z,32.03
2022-11-02T03:05:33.969Z,31.38
2022-11-02T03:10:46.011Z,26.73
2022-11-02T03:15:59.809Z,25.38
2022-11-02T03:21:10.472Z,29.45
2022-11-02T03:26:17.814Z,27.92
2022-11-02T03:31:32.553Z,25.52
2022-11-02T03:36:43.961Z,28.88
2022-11-02T03:41:49.837Z,25.15
2022-11-02T03:47:03.040Z,24.08
2022-11-02T03:52:09.617Z,25.23
2022-11-02T03:57:19.306Z,26.88
2022-11-02T04:02:27.059Z,25.23
2022-11-02T04:07:58.538Z,26.13
2022-11-02T04:13:16.881Z,25.30
2022-11-02T04:18:36.805Z,25.02
2022-11-02T04:23:54.092Z,25.27
2022-11-02T04:28:59.292Z,26.48
2022-11-02T04:34:06.976Z,25.83
2022-11-02T04:39:11.938Z,25.38
2022-11-02T04:44:17.799Z,26.40
2022-11-02T04:49:25.499Z,24.42
2022-11-02T04:54:30.546Z,24.23
2022-11-02T04:59:35.528Z,22.92
2022-11-02T05:04:43.194Z,24.50
2022-11-02T05:09:48.180Z,25.48
2022-11-02T05:14:53.219Z,22.70
2022-11-02T05:20:01.916Z,21.63
2022-11-02T05:25:07.520Z,24.48
2022-11-02T05:30:13.987Z,22.90
2022-11-02T05:35:21.557Z,23.35
2022-11-02T05:40:26.615Z,22.52
2022-11-02T05:45:31.649Z,27.45
2022-11-02T05:50:39.252Z,30.60
2022-11-02T05:55:44.338Z,31.40
2022-11-02T06:00:49.381Z,25.17
2022-11-02T06:06:01.694Z,24.27
2022-11-02T06:11:11.937Z,24.23
2022-11-02T06:21:30.161Z,24.90
2022-11-02T06:26:35.210Z,26.33
2022-11-02T06:31:40.248Z,24.15
2022-11-02T06:36:47.837Z,25.25
2022-11-02T06:41:52.764Z,24.63
2022-11-02T06:46:58.818Z,29.48
2022-11-02T06:52:06.521Z,27.00
2022-11-02T06:57:11.586Z,23.25
2022-11-02T07:02:16.664Z,23.77
2022-11-02T07:07:24.290Z,21.88
2022-11-02T07:12:29.264Z,22.92
2022-11-02T07:17:34.232Z,21.20
2022-11-02T07:22:47.755Z,20.08
2022-11-02T07:27:52.943Z,20.90
2022-11-02T07:32:57.972Z,22.95
2022-11-02T07:38:06.937Z,21.58
2022-11-02T07:43:12.172Z,19.95
2022-11-02T07:48:17.142Z,21.02
2022-11-02T07:53:24.702Z,21.33
2022-11-02T07:58:29.749Z,61.63
2022-11-02T08:03:34.816Z,29.10
2022-11-02T08:08:42.484Z,30.33
2022-11-02T08:13:47.453Z,21.10
2022-11-02T08:18:52.448Z,20.58
2022-11-02T08:24:00.141Z,23.38
2022-11-02T08:29:05.384Z,29.15
2022-11-02T08:34:12.084Z,21.42
2022-11-02T08:39:19.680Z,17.52
2022-11-02T08:44:24.635Z,18.42
2022-11-02T08:49:29.612Z,15.38
2022-11-02T08:54:37.153Z,14.98
2022-11-02T08:59:42.472Z,15.73
2022-11-02T09:04:47.444Z,26.05
2022-11-02T09:09:55.088Z,22.63
2022-11-02T09:15:00.119Z,14.20
2022-11-02T09:20:05.091Z,13.63
2022-11-02T09:25:13.236Z,13.82
2022-11-02T09:30:18.292Z,14.13
2022-11-02T09:35:23.257Z,13.57
2022-11-02T09:40:33.911Z,13.85
2022-11-02T09:45:42.356Z,12.85
2022-11-02T09:50:51.199Z,13.02
2022-11-02T09:56:01.939Z,12.20
2022-11-02T10:01:12.617Z,15.63
2022-11-02T10:06:21.351Z,14.27
2022-11-02T10:17:06.125Z,12.70
2022-11-02T10:22:13.954Z,15.30
2022-11-02T10:27:29.424Z,15.50
2022-11-02T10:32:34.877Z,15.38
2022-11-02T10:37:54.462Z,13.77
2022-11-02T10:43:11.318Z,12.93
2022-11-02T10:48:24.366Z,12.10
2022-11-02T10:53:41.275Z,14.00
2022-11-02T10:58:54.591Z,14.73
2022-11-02T11:04:01.568Z,13.90
2022-11-02T11:09:08.548Z,16.60
2022-11-02T11:19:51.611Z,12.63
2022-11-02T11:24:56.808Z,11.98
2022-11-02T11:30:04.404Z,13.23
2022-11-02T11:35:17.514Z,17.30
2022-11-02T11:40:23.948Z,14.35
2022-11-02T11:45:33.530Z,19.98
2022-11-02T11:50:38.949Z,17.83
2022-11-02T11:55:51.305Z,14.73
2022-11-02T12:01:11.105Z,17.33
2022-11-02T12:06:22.307Z,13.60
2022-11-02T12:11:34.088Z,14.02
2022-11-02T12:16:54.866Z,15.38
2022-11-02T12:22:06.536Z,16.23
2022-11-02T12:27:22.063Z,16.05
2022-11-02T12:32:45.865Z,15.27
2022-11-02T12:38:03.554Z,15.55
2022-11-02T12:43:23.639Z,16.00
2022-11-02T12:48:39.684Z,15.63
2022-11-02T12:53:49.013Z,14.73
2022-11-02T12:58:55.233Z,14.00
2022-11-02T13:04:08.096Z,19.83
2022-11-02T13:09:17.286Z,15.18
2022-11-02T13:14:23.853Z,20.43
2022-11-02T13:19:35.829Z,20.23
2022-11-02T13:24:48.171Z,17.70
2022-11-02T13:29:53.822Z,18.88
2022-11-02T13:35:02.443Z,19.98
2022-11-02T13:40:11.187Z,18.90
2022-11-02T13:45:35.936Z,19.17
2022-11-02T13:50:47.662Z,20.75
2022-11-02T13:55:56.326Z,24.58
2022-11-02T14:01:03.893Z,19.70
2022-11-02T14:06:16.377Z,24.75
2022-11-02T14:11:30.785Z,25.63
2022-11-02T14:17:14.848Z,24.08
2022-11-02T14:22:23.299Z,25.50
2022-11-02T14:27:32.459Z,25.10
2022-11-02T14:32:44.980Z,28.47
2022-11-02T14:38:07.822Z,30.05
2022-11-02T14:43:41.666Z,28.90
2022-11-02T14:48:48.766Z,25.65
2022-11-02T14:53:59.245Z,25.80
2022-11-02T14:59:04.260Z,26.25
2022-11-02T15:04:10.131Z,26.33
2022-11-02T15:09:52.585Z,23.35
2022-11-02T15:14:59.447Z,21.25
2022-11-02T15:20:34.714Z,23.23
2022-11-02T15:25:43.885Z,21.10
2022-11-02T15:30:51.282Z,23.67
2022-11-02T15:35:57.409Z,24.90
2022-11-02T15:41:20.156Z,23.40
2022-11-02T15:46:34.265Z,21.98
2022-11-02T15:51:44.864Z,23.50
2022-11-02T15:57:22.765Z,25.45
2022-11-02T16:02:30.358Z,24.00
2022-11-02T16:07:56.930Z,24.90
2022-11-02T16:13:05.161Z,18.98
2022-11-02T16:18:25.613Z,19.50
2022-11-02T16:28:39.286Z,20.75
2022-11-02T16:33:45.577Z,19.38
2022-11-02T16:38:54.453Z,18.67
2022-11-02T16:44:04.657Z,19.65
2022-11-02T16:49:18.786Z,18.70
2022-11-02T16:54:32.848Z,17.65
2022-11-02T16:59:41.933Z,17.40
2022-11-02T17:04:48.722Z,18.10
2022-11-02T17:09:56.018Z,16.63
2022-11-02T17:15:05.304Z,19.33
2022-11-02T17:20:19.604Z,18.83
2022-11-02T17:25:26.084Z,18.63
2022-11-02T17:30:52.450Z,21.50
2022-11-02T17:35:58.894Z,23.35
2022-11-02T17:41:24.226Z,27.63
2022-11-02T17:46:31.921Z,34.13
2022-11-02T17:51:37.024Z,36.22
2022-11-02T17:56:42.010Z,31.42
2022-11-02T18:01:49.816Z,34.22
2022-11-02T18:06:55.066Z,43.80
2022-11-02T18:12:00.035Z,38.20
2022-11-02T18:17:07.622Z,43.13
2022-11-02T18:22:13.862Z,41.72
2022-11-02T18:27:19.325Z,39.30
2022-11-02T18:32:29.026Z,39.08
2022-11-02T18:37:34.319Z,37.03
2022-11-02T18:42:41.929Z,35.85
2022-11-02T18:47:51.952Z,37.30
2022-11-02T18:52:56.965Z,52.40
2022-11-02T18:58:02.044Z,50.38
2022-11-02T19:03:10.138Z,43.35
2022-11-02T19:08:27.449Z,49.85
2022-11-02T19:13:32.924Z,51.40
2022-11-02T19:18:40.510Z,44.97
2022-11-02T19:23:45.620Z,44.85
2022-11-02T19:28:50.969Z,46.78
2022-11-02T19:33:58.848Z,46.72
2022-11-02T19:39:04.249Z,43.58
2022-11-02T19:44:09.641Z,42.47
2022-11-02T19:49:17.684Z,40.80
2022-11-02T19:54:22.883Z,42.47
2022-11-02T19:59:29.004Z,53.08
2022-11-02T20:04:42.293Z,65.70
2022-11-02T20:09:47.586Z,57.42
2022-11-02T20:14:52.577Z,46.20
2022-11-02T20:20:04.933Z,41.50
2022-11-02T20:25:11.161Z,37.25
2022-11-02T20:30:16.401Z,35.70
2022-11-02T20:35:26.119Z,36.33
2022-11-02T20:40:33.826Z,38.50
2022-11-02T20:50:50.259Z,40.33
2022-11-02T20:55:55.506Z,40.67
2022-11-02T21:01:01.130Z,39.72
2022-11-02T21:06:09.962Z,35.40
2022-11-02T21:11:27.058Z,42.05
2022-11-02T21:16:33.852Z,51.42
2022-11-02T21:21:41.433Z,78.68
2022-11-02T21:26:46.686Z,53.40
2022-11-02T21:31:51.728Z,48.92
2022-11-02T21:36:59.337Z,55.17
2022-11-02T21:42:04.418Z,46.10
2022-11-02T21:47:09.404Z,48.30
2022-11-02T21:52:17.174Z,47.00
2022-11-02T21:57:22.172Z,40.25
2022-11-02T22:02:27.255Z,45.03
2022-11-02T22:07:55.000Z,39.10
2022-11-02T22:13:18.111Z,35.55
2022-11-02T22:18:23.071Z,35.28
2022-11-02T22:23:30.703Z,34.65
2022-11-02T22:28:37.075Z,31.70
2022-11-02T22:33:42.353Z,32.80
2022-11-02T22:38:56.344Z,30.83
2022-11-02T22:44:02.777Z,30.45
2022-11-02T22:49:08.647Z,27.98
2022-11-02T22:54:17.941Z,28.55
2022-11-02T22:59:22.998Z,27.47
2022-11-02T23:04:27.980Z,28.60
2022-11-02T23:09:35.615Z,29.35
2022-11-02T23:14:40.634Z,26.40
2022-11-02T23:19:45.595Z,26.45
2022-11-02T23:25:06.885Z,24.17
2022-11-02T23:30:28.124Z,25.20
2022-11-02T23:35:45.200Z,24.15
2022-11-02T23:40:56.487Z,25.17
2022-11-02T23:46:01.537Z,24.77
2022-11-02T23:51:18.976Z,25.02
2022-11-02T23:56:39.021Z,27.00
